• Join FlightAware (Why Join?)
  • Login
  • US Flag 
12:08PM EDT


 

Airport Tracker/Info


-or-


 

Live Flight TrackerFlight Track Log ✈ EJA839 ✈ 23-Apr-2013 ✈ KILM - KACK

Flight Track Log - Related Links

Times and Time Zones

All times are in EDT time to prevent confusion due to time zone crossing. See the EJA839 flight status page for this flight to view local times or setup timezone preferences in your user account.

Time Position Orientation Groundspeed Altitude Reporting Facility
EDT Latitude Longitude Course Direction KTS MPH feet Rate Location/Type
04:52PM 34.3367 -77.8303 11° North 230 265 5,400  Level Washington Center
04:53PM 34.4036 -77.8147 11° North 220 253 8,500 2,940 Climbing Washington Center
04:54PM 34.4792 -77.7964 11° North 249 287 11,300 2,760 Climbing Washington Center
04:56PM 34.6425 -77.7531 12° North 290 334 16,900 2,520 Climbing Washington Center
04:57PM 34.7286 -77.7300 12° North 302 348 18,900 1,800 Climbing Washington Center
04:58PM 34.8186 -77.7069 12° North 315 362 20,600 1,800 Climbing Washington Center
04:59PM 34.9111 -77.6792 14° North 326 375 22,500 1,800 Climbing Washington Center
05:00PM 35.0033 -77.6561 12° North 326 375 24,200 1,680 Climbing Washington Center
05:01PM 35.0933 -77.6331 12° North 331 381 25,900 1,620 Climbing Washington Center
05:02PM 35.1794 -77.6072 14° North 331 381 27,500 1,620 Climbing Washington Center
05:03PM 35.2694 -77.5839 12° North 331 381 29,200 1,680 Climbing Washington Center
05:04PM 35.3556 -77.5531 16° North 325 374 30,900 1,680 Climbing Washington Center
05:05PM 35.4314 -77.4964 31° Northeast 314 361 32,600 1,620 Climbing Washington Center
05:06PM 35.5075 -77.4419 30° Northeast 309 356 34,200 1,380 Climbing Washington Center
05:07PM 35.5792 -77.3875 32° Northeast 309 356 35,400 1,200 Climbing Washington Center
05:08PM 35.6511 -77.3303 33° Northeast 309 356 36,600 780 Climbing Washington Center
05:09PM 35.7269 -77.2756 30° Northeast 309 356 37,000 180 Climbing Washington Center
05:10PM 35.8111 -77.2158 30° Northeast 315 362 37,000  Level Washington Center
05:11PM 35.8978 -77.1458 33° Northeast 345 397 37,000  Level Washington Center
05:12PM 35.9842 -77.0808 31° Northeast 356 410 37,000 480 Level Washington Center
05:13PM 36.0747 -77.0131 31° Northeast 371 427 38,000 900 Climbing Washington Center
05:14PM 36.1650 -76.9478 30° Northeast 371 427 38,800 480 Climbing Washington Center
05:15PM 36.2533 -76.8797 32° Northeast 371 427 39,000 60 Climbing Washington Center
05:16PM 36.3439 -76.7989 36° Northeast 377 434 39,000  Level Washington Center
05:17PM 36.4367 -76.7175 35° Northeast 388 447 39,000  Level Washington Center
05:18PM 36.5292 -76.6336 36° Northeast 400 460 39,000  Level Washington Center
05:19PM 36.6258 -76.5494 35° Northeast 411 473 39,000  Level Washington Center
05:20PM 36.7183 -76.4600 38° Northeast 411 473 39,000  Level Washington Center
05:21PM 36.8128 -76.3728 36° Northeast 416 479 39,000  Level Washington Center
05:22PM 36.9092 -76.2881 35° Northeast 416 479 39,000  Level Washington Center
05:23PM 36.9953 -76.2081 37° Northeast 416 479 39,000  Level Washington Center
05:24PM 37.1042 -76.1153 34° Northeast 422 486 39,000  Level Washington Center
05:25PM 37.2006 -76.0272 36° Northeast 427 491 39,000  Level Washington Center
05:26PM 37.2925 -75.9392 37° Northeast 427 491 39,000  Level Washington Center
05:27PM 37.3886 -75.8506 36° Northeast 427 491 39,000  Level Washington Center
05:28PM 37.4828 -75.7594 38° Northeast 427 491 39,000  Level Washington Center
05:29PM 37.5786 -75.6731 36° Northeast 427 491 39,000  Level Washington Center
05:30PM 37.6747 -75.5814 37° Northeast 427 491 39,000  Level Washington Center
05:31PM 37.7728 -75.4894 37° Northeast 432 497 39,000  Level Washington Center
05:33PM 37.9600 -75.3125 37° Northeast 427 491 39,000  Level Washington Center
05:34PM 38.0558 -75.2200 37° Northeast 427 491 39,000  Level Washington Center
05:35PM 38.1556 -75.1322 35° Northeast 433 498 39,000  Level Washington Center
05:36PM 38.2531 -75.0364 38° Northeast 433 498 39,000  Level Washington Center
05:37PM 38.3381 -74.9458 40° Northeast 433 498 39,000  Level Washington Center
05:38PM 38.4378 -74.8522 36° Northeast 438 504 39,000  Level Washington Center
05:39PM 38.5350 -74.7583 37° Northeast 438 504 39,000  Level Washington Center
05:40PM 38.6344 -74.6614 37° Northeast 433 498 39,000  Level Washington Center
05:41PM 38.7336 -74.5644 37° Northeast 438 504 39,000  Level Washington Center
05:42PM 38.8411 -74.4589 37° Northeast 443 510 39,000  Level Washington Center
05:43PM 38.9381 -74.3642 37° Northeast 443 510 39,000  Level Washington Center
05:44PM 39.0350 -74.2689 37° Northeast 438 504 39,000  Level Washington Center
05:45PM 39.1300 -74.1761 37° Northeast 438 504 39,000  Level Washington Center
05:46PM 39.2289 -74.0778 38° Northeast 438 504 39,000  Level Washington Center
05:47PM 39.3233 -73.9792 39° Northeast 438 504 39,000  Level Washington Center
05:49PM 39.5000 -73.8031 38° Northeast 444 511 39,000  Level Boston Center
05:50PM 39.5989 -73.7028 38° Northeast 444 511 39,000  Level Boston Center
05:51PM 39.6981 -73.6022 38° Northeast 449 517 39,000  Level Boston Center
05:52PM 39.7989 -73.5014 38° Northeast 449 517 39,000 -300 Level Boston Center
05:53PM 39.8978 -73.3975 39° Northeast 449 517 38,400 -840 Descending Boston Center
05:54PM 40.0111 -73.2906 36° Northeast 454 522 37,400 -1,200 Descending Boston Center
05:55PM 40.1142 -73.1808 39° Northeast 461 531 36,000 -1,320 Descending Boston Center
05:56PM 40.2083 -73.0786 40° Northeast 479 551 34,800 -1,320 Descending Boston Center
05:57PM 40.3214 -72.9681 37° Northeast 485 558 33,400 -1,440 Descending Boston Center
05:58PM 40.4242 -72.8572 39° Northeast 485 558 32,000 -1,380 Descending Boston Center
05:59PM 40.5286 -72.7458 39° Northeast 485 558 30,700 -1,380 Descending Boston Center
06:00PM 40.6350 -72.6397 37° Northeast 485 558 29,300 -1,500 Descending Boston Center
06:01PM 40.7081 -72.5058 54° Northeast 469 540 27,800 -1,440 Descending Boston Center
06:02PM 40.7456 -72.3553 72° East 427 491 26,400 -1,260 Descending Boston Center
06:03PM 40.7831 -72.2125 71° East 422 486 25,300 -1,080 Descending Boston Center
06:04PM 40.8181 -72.0700 72° East 410 472 24,300 -900 Descending Boston Center
06:05PM 40.8592 -71.9078 71° East 405 466 23,500 -960 Descending Boston Center
06:06PM 40.8939 -71.7867 69° East 405 466 22,400 -1,080 Descending Boston Center
06:07PM 40.9242 -71.6489 74° East 400 460 21,400 -1,020 Descending Boston Center
06:08PM 40.9544 -71.5056 74° East 401 461 20,400 -1,020 Descending Boston Center
06:09PM 40.9864 -71.3706 73° East 396 456 19,400 -1,020 Descending Boston Center
06:10PM 41.0247 -71.2294 70° East 374 430 18,400 -780 Descending Boston Center
06:11PM 41.0503 -71.1081 74° East 374 430 17,900 -1,260 Descending Boston Center
06:12PM 41.0778 -70.9669 75° East 361 415 15,900 -2,100 Descending Boston Center
06:13PM 41.1053 -70.8425 74° East 355 409 13,800 -2,040 Descending Boston Center
06:14PM 41.1306 -70.7233 74° East 345 397 11,900 -1,920 Descending Boston Center
06:15PM 41.1456 -70.6044 80° East 333 383 10,000 -1,860 Descending Boston Center
06:16PM 41.1519 -70.4939 86° East 311 358 8,200 -2,100 Descending Boston Center
06:17PM 41.1586 -70.3972 85° East 287 330 5,900 -2,580 Descending Boston Center
06:18PM 41.1589 -70.3033 90° East 264 304 3,100 -2,100 Descending Boston Center
06:19PM 41.1511 -70.2264 98° East 231 266 1,800 -720 Descending Boston Center
06:20PM 41.1731 -70.1761 60° Northeast 157 181 1,700 -360 Descending Boston Center
06:21PM 41.2014 -70.1392 44° Northeast 151 174 1,100 -300 Descending Boston Center
06:22PM 41.2150 -70.0889 70° East 151 174 1,100  Level Boston Center